Time;durP1;ratioP1;P1;durP2;ratioP2;P2;SDS_P1;SDS_P2;PMS_P1;PMS_P2;Temp;Humidity;BMP_temperature;BMP_pressure;BME280_temperature;BME280_humidity;BME280_pressure;Samples;Min_cycle;Max_cycle;Signal;HPM_P1;HPM_P2
2022/03/04 00:01:19;;;;;;;19.65;10.13;;;0.90;99.90;;;;;;2191221;65;20365;-73
2022/03/04 00:03:59;;;;;;;18.80;10.55;;;0.90;99.90;;;;;;2191856;65;20216;-73
2022/03/04 00:06:40;;;;;;;19.50;10.77;;;0.90;99.90;;;;;;2190357;65;20178;-73
2022/03/04 00:09:20;;;;;;;20.00;11.38;;;0.90;99.90;;;;;;2190423;65;20273;-73
2022/03/04 00:11:56;;;;;;;21.23;10.57;;;0.60;99.90;;;;;;2190649;65;20201;-74
2022/03/04 00:14:33;;;;;;;21.70;10.25;;;0.80;99.90;;;;;;2191077;65;20233;-73
2022/03/04 00:17:25;;;;;;;17.70;10.98;;;0.80;99.90;;;;;;2175899;65;20372;-73
2022/03/04 00:20:04;;;;;;;20.58;11.02;;;0.80;99.90;;;;;;2175477;65;20217;-73
2022/03/04 00:22:54;;;;;;;18.95;9.25;;;0.80;99.90;;;;;;2167942;65;20220;-74
2022/03/04 00:25:31;;;;;;;19.80;10.68;;;0.80;99.90;;;;;;2168628;65;20730;-72
2022/03/04 00:28:13;;;;;;;18.63;10.73;;;0.70;99.90;;;;;;2182929;65;20308;-73
2022/03/04 00:30:55;;;;;;;19.48;11.32;;;0.70;99.90;;;;;;2174846;65;20192;-74
2022/03/04 00:33:37;;;;;;;21.63;10.98;;;0.70;99.90;;;;;;2161447;66;20213;-74
2022/03/04 00:36:23;;;;;;;20.83;11.00;;;0.70;99.90;;;;;;2153367;66;20406;-74
2022/03/04 00:39:07;;;;;;;21.33;12.40;;;0.70;99.90;;;;;;2152682;66;20169;-73
2022/03/04 00:41:49;;;;;;;21.17;12.02;;;0.60;99.90;;;;;;2141476;66;20178;-73
2022/03/04 00:44:31;;;;;;;19.55;11.07;;;0.60;99.90;;;;;;2137941;66;20191;-74
2022/03/04 00:47:13;;;;;;;22.27;11.18;;;0.60;99.90;;;;;;2131401;67;20315;-72
2022/03/04 00:49:58;;;;;;;20.45;10.70;;;0.50;99.90;;;;;;2110381;67;20363;-74
2022/03/04 00:52:40;;;;;;;22.42;12.15;;;0.60;99.90;;;;;;2110396;67;20324;-73
2022/03/04 00:55:22;;;;;;;24.42;11.95;;;0.50;99.90;;;;;;2103682;67;20223;-73
2022/03/04 00:58:10;;;;;;;22.65;11.27;;;0.40;99.90;;;;;;2089867;68;20670;-73
2022/03/04 01:00:52;;;;;;;20.25;12.27;;;0.40;99.90;;;;;;2081888;68;20325;-73
2022/03/04 01:03:34;;;;;;;22.38;12.68;;;0.40;99.90;;;;;;2084840;68;20658;-74
2022/03/04 01:06:16;;;;;;;22.63;12.70;;;0.40;99.90;;;;;;2077018;68;20180;-74
2022/03/04 01:08:57;;;;;;;27.05;13.68;;;0.30;99.90;;;;;;2060409;69;20822;-73
2022/03/04 01:11:40;;;;;;;23.05;13.07;;;0.30;99.90;;;;;;2063848;69;20263;-73
2022/03/04 01:14:22;;;;;;;24.08;14.10;;;0.30;99.90;;;;;;2059263;69;20275;-74
2022/03/04 01:17:05;;;;;;;26.38;14.70;;;0.40;99.90;;;;;;2071747;68;20683;-73
2022/03/04 01:19:49;;;;;;;29.60;13.75;;;0.30;99.90;;;;;;2068385;69;20351;-73
2022/03/04 01:22:33;;;;;;;28.30;15.30;;;0.30;99.90;;;;;;2074440;68;20253;-73
2022/03/04 01:25:17;;;;;;;;;;;0.30;99.90;;;;;;2103733;67;20461;-74
2022/03/04 01:28:02;;;;;;;21.50;13.18;;;0.30;99.90;;;;;;2096054;68;20328;-73
2022/03/04 01:30:48;;;;;;;25.88;14.05;;;0.20;99.90;;;;;;2096432;68;20336;-71
2022/03/04 01:33:29;;;;;;;25.92;12.85;;;0.20;99.90;;;;;;2096500;68;20359;-72
2022/03/04 01:36:11;;;;;;;29.45;14.02;;;0.20;99.90;;;;;;2089735;68;20192;-72
2022/03/04 01:38:57;;;;;;;25.25;13.60;;;0.20;99.90;;;;;;2095327;68;20187;-71
2022/03/04 01:41:41;;;;;;;;;;;0.10;99.90;;;;;;2103062;67;20190;-75
2022/03/04 01:44:23;;;;;;;28.52;13.93;;;0.10;99.90;;;;;;2108427;67;20199;-72
2022/03/04 01:47:06;;;;;;;22.67;14.13;;;0.10;99.90;;;;;;2110000;67;20210;-73
2022/03/04 01:49:51;;;;;;;22.52;12.88;;;0.10;99.90;;;;;;2110819;67;20327;-72
2022/03/04 01:52:34;;;;;;;28.83;14.85;;;0.00;99.90;;;;;;2124405;67;20339;-72
2022/03/04 01:55:21;;;;;;;26.42;13.75;;;0.00;99.90;;;;;;2107788;67;20178;-73
2022/03/04 01:58:04;;;;;;;27.65;13.70;;;0.00;99.90;;;;;;2136706;66;20245;-73
2022/03/04 02:00:50;;;;;;;30.95;15.23;;;0.00;99.90;;;;;;2116963;67;20236;-73
2022/03/04 02:03:32;;;;;;;28.02;14.43;;;0.00;99.90;;;;;;2109428;67;20390;-73
2022/03/04 02:06:13;;;;;;;27.85;14.10;;;-0.10;99.90;;;;;;2089234;68;20683;-73
2022/03/04 02:08:56;;;;;;;24.35;14.07;;;-0.10;99.90;;;;;;2096302;68;20285;-73
2022/03/04 02:11:45;;;;;;;27.63;15.27;;;-0.10;99.90;;;;;;2099644;68;20224;-72
2022/03/04 02:14:29;;;;;;;25.23;14.65;;;-0.10;99.90;;;;;;2102375;68;20198;-73
2022/03/04 02:17:14;;;;;;;27.23;14.23;;;-0.20;99.90;;;;;;2095285;68;20214;-73
2022/03/04 02:19:57;;;;;;;23.80;14.65;;;-0.20;99.90;;;;;;2097063;68;20291;-73
2022/03/04 02:22:38;;;;;;;24.60;14.23;;;-0.20;99.90;;;;;;2098785;68;20424;-74
2022/03/04 02:25:20;;;;;;;28.42;15.55;;;-0.30;99.90;;;;;;2097938;68;20206;-72
2022/03/04 02:28:02;;;;;;;23.95;14.00;;;-0.30;99.90;;;;;;2103603;67;20685;-72
2022/03/04 02:30:44;;;;;;;25.20;14.30;;;-0.30;99.90;;;;;;2108163;67;20841;-72
2022/03/04 02:33:30;;;;;;;24.95;14.40;;;-0.30;99.90;;;;;;2104838;67;20269;-72
2022/03/04 02:36:15;;;;;;;28.77;15.40;;;-0.40;99.90;;;;;;2103669;67;20213;-73
2022/03/04 02:38:57;;;;;;;29.25;14.65;;;-0.40;99.90;;;;;;2106234;67;20236;-71
2022/03/04 02:41:38;;;;;;;30.63;16.13;;;-0.40;99.90;;;;;;2117093;67;20754;-73
2022/03/04 02:44:21;;;;;;;31.08;16.55;;;-0.40;99.90;;;;;;2121836;67;20309;-73
2022/03/04 02:47:05;;;;;;;30.00;15.70;;;-0.40;99.90;;;;;;2122121;67;20333;-73
2022/03/04 02:49:48;;;;;;;25.25;14.80;;;-0.40;99.90;;;;;;2115790;67;20363;-72
2022/03/04 02:52:32;;;;;;;29.17;15.00;;;-0.50;99.90;;;;;;2116483;67;20330;-73
2022/03/04 02:55:14;;;;;;;26.40;14.43;;;-0.50;99.90;;;;;;2116347;67;20332;-73
2022/03/04 02:57:55;;;;;;;29.92;16.27;;;-0.50;99.90;;;;;;2118125;67;20255;-72
2022/03/04 03:00:38;;;;;;;27.95;14.98;;;-0.50;99.90;;;;;;2116733;67;20206;-72
2022/03/04 03:03:20;;;;;;;33.42;16.38;;;-0.50;99.90;;;;;;2116053;67;20682;-73
2022/03/04 03:06:02;;;;;;;28.58;13.40;;;-0.60;99.90;;;;;;2099983;67;20391;-72
2022/03/04 03:08:46;;;;;;;26.67;13.93;;;-0.60;99.90;;;;;;2103226;67;20309;-72
2022/03/04 03:11:30;;;;;;;;;;;-0.60;99.90;;;;;;2104001;67;21808;-73
2022/03/04 03:14:11;;;;;;;26.00;13.65;;;-0.40;99.90;;;;;;2103646;67;20164;-71
2022/03/04 03:16:53;;;;;;;33.00;14.77;;;-0.70;99.90;;;;;;2102873;67;20253;-72
2022/03/04 03:19:35;;;;;;;27.85;14.70;;;-0.70;99.90;;;;;;2089183;68;20340;-74
2022/03/04 03:22:18;;;;;;;27.70;15.35;;;-0.70;99.90;;;;;;2103531;67;20206;-72
2022/03/04 03:25:01;;;;;;;29.15;15.40;;;-0.70;99.90;;;;;;2096431;68;20801;-73
2022/03/04 03:27:42;;;;;;;28.98;15.15;;;-0.70;99.90;;;;;;2093103;68;20279;-74
2022/03/04 03:30:28;;;;;;;29.20;14.87;;;-0.80;99.90;;;;;;2106012;67;20193;-71
2022/03/04 03:33:13;;;;;;;30.67;15.80;;;-0.80;99.90;;;;;;2118563;67;20573;-72
2022/03/04 03:35:55;;;;;;;29.95;15.20;;;-0.80;99.90;;;;;;2111362;67;20257;-71
2022/03/04 03:38:36;;;;;;;28.85;16.58;;;-0.80;99.90;;;;;;2109437;67;20756;-72
2022/03/04 03:41:18;;;;;;;27.63;14.80;;;-0.70;99.90;;;;;;2102093;67;20411;-73
2022/03/04 03:44:00;;;;;;;32.60;15.27;;;-0.90;99.90;;;;;;2103060;67;20208;-72
2022/03/04 03:46:42;;;;;;;28.88;15.50;;;-1.00;99.90;;;;;;2117436;67;20916;-73
2022/03/04 03:49:25;;;;;;;28.70;15.60;;;-0.80;99.90;;;;;;2124021;67;20257;-73
2022/03/04 03:52:09;;;;;;;;;;;-1.00;99.90;;;;;;2117132;67;20320;-73
2022/03/04 03:54:51;;;;;;;31.35;15.68;;;-1.10;99.90;;;;;;2110463;67;20068;-76
2022/03/04 03:57:33;;;;;;;25.70;14.45;;;-1.00;99.90;;;;;;2110575;67;20197;-73
2022/03/04 04:00:16;;;;;;;30.70;15.10;;;-1.10;99.90;;;;;;2090890;68;20261;-73
2022/03/04 04:02:59;;;;;;;34.13;16.00;;;-1.10;99.90;;;;;;2102405;67;20214;-73
2022/03/04 04:05:43;;;;;;;36.20;16.20;;;-1.10;99.90;;;;;;2094989;68;20727;-73
2022/03/04 04:08:25;;;;;;;32.47;16.27;;;-1.20;99.90;;;;;;2108613;67;20787;-73
2022/03/04 04:11:07;;;;;;;29.77;15.93;;;-1.20;99.90;;;;;;2102865;67;20162;-72
2022/03/04 04:13:49;;;;;;;30.58;15.77;;;-1.20;99.90;;;;;;2109827;67;20572;-72
2022/03/04 04:16:30;;;;;;;33.08;16.25;;;-1.20;99.90;;;;;;2103725;67;20323;-72
2022/03/04 04:19:12;;;;;;;34.40;16.65;;;-1.30;99.90;;;;;;2104128;67;20227;-70
2022/03/04 04:21:55;;;;;;;31.17;16.10;;;-1.20;99.90;;;;;;2104801;67;20182;-71
2022/03/04 04:24:39;;;;;;;41.33;18.27;;;-1.30;99.90;;;;;;2104695;67;20186;-73
2022/03/04 04:27:21;;;;;;;31.58;17.02;;;-1.30;99.90;;;;;;2110585;67;20314;-72
2022/03/04 04:30:04;;;;;;;30.10;16.48;;;-1.30;99.90;;;;;;2116371;67;20238;-71
2022/03/04 04:32:48;;;;;;;32.53;16.52;;;-1.30;99.90;;;;;;2118970;67;20256;-73
2022/03/04 04:35:30;;;;;;;35.63;16.67;;;-1.30;99.90;;;;;;2111272;67;20336;-73
2022/03/04 04:38:15;;;;;;;39.38;17.80;;;-1.20;99.90;;;;;;2097162;68;20463;-72
2022/03/04 04:40:58;;;;;;;32.95;16.20;;;-1.20;99.90;;;;;;2083754;68;20381;-72
2022/03/04 04:43:43;;;;;;;38.03;18.25;;;-1.10;99.90;;;;;;2089524;68;20795;-72
2022/03/04 04:46:28;;;;;;;33.08;16.23;;;-1.10;99.90;;;;;;2090798;68;20247;-73
2022/03/04 04:49:15;;;;;;;33.10;16.70;;;-1.00;99.90;;;;;;2083708;68;20416;-75
2022/03/04 04:52:01;;;;;;;32.90;17.38;;;-1.00;99.90;;;;;;2078071;68;20244;-72
2022/03/04 04:54:44;;;;;;;34.20;17.45;;;-1.00;99.90;;;;;;2082629;68;20176;-73
2022/03/04 04:57:28;;;;;;;;;;;-0.90;99.90;;;;;;2085999;68;20333;-73
2022/03/04 05:00:14;;;;;;;33.95;16.65;;;-0.90;99.90;;;;;;2064697;69;20252;-73
2022/03/04 05:02:56;;;;;;;37.10;17.95;;;-0.90;99.90;;;;;;2088804;68;20388;-74
2022/03/04 05:05:40;;;;;;;34.33;17.98;;;-0.90;99.90;;;;;;2096838;67;20242;-73
2022/03/04 05:08:24;;;;;;;36.45;15.98;;;-0.80;99.90;;;;;;2115856;67;20698;-72
2022/03/04 05:11:09;;;;;;;36.58;17.55;;;-0.80;99.90;;;;;;2106479;67;20550;-72
2022/03/04 05:13:51;;;;;;;34.33;17.25;;;-0.80;99.90;;;;;;2104922;67;20264;-71
2022/03/04 05:16:39;;;;;;;36.03;16.77;;;-0.40;99.90;;;;;;2105023;67;20195;-73
2022/03/04 05:19:24;;;;;;;34.17;16.95;;;-0.70;99.90;;;;;;2109165;67;20278;-72
2022/03/04 05:22:06;;;;;;;29.25;16.98;;;-0.60;99.90;;;;;;2104780;67;20167;-71
2022/03/04 05:24:48;;;;;;;30.00;16.85;;;-0.40;99.90;;;;;;2111322;67;20394;-71
2022/03/04 05:27:30;;;;;;;35.08;18.00;;;-0.60;99.90;;;;;;2102650;67;20241;-71
2022/03/04 05:30:12;;;;;;;34.33;18.10;;;-0.60;99.90;;;;;;2097930;68;20327;-73
2022/03/04 05:32:54;;;;;;;33.80;17.55;;;-0.50;99.90;;;;;;2110597;67;20225;-71
2022/03/04 05:35:36;;;;;;;33.50;17.83;;;-0.50;99.90;;;;;;2112315;67;20432;-71
2022/03/04 05:38:18;;;;;;;33.50;17.02;;;-0.50;99.90;;;;;;2096926;68;20331;-74
2022/03/04 05:41:03;;;;;;;27.70;15.45;;;-0.50;99.90;;;;;;2084528;68;20868;-73
2022/03/04 05:43:46;;;;;;;29.38;16.23;;;-0.50;99.90;;;;;;2096414;67;20207;-73
2022/03/04 05:46:27;;;;;;;31.45;15.70;;;-0.50;99.90;;;;;;2117023;67;20276;-72
2022/03/04 05:49:09;;;;;;;29.95;15.63;;;-0.50;99.90;;;;;;2103207;67;20357;-72
2022/03/04 05:51:53;;;;;;;31.88;16.02;;;-0.50;99.90;;;;;;2097715;68;20307;-72
2022/03/04 05:54:37;;;;;;;25.42;14.80;;;-0.50;99.90;;;;;;2096732;68;20360;-72
2022/03/04 05:57:20;;;;;;;29.60;15.10;;;-0.60;99.90;;;;;;2109824;67;20717;-72
2022/03/04 06:00:06;;;;;;;31.20;16.13;;;-0.60;99.90;;;;;;2104182;67;20200;-72
2022/03/04 06:02:48;;;;;;;34.20;17.02;;;-0.60;99.90;;;;;;2091452;68;20250;-74
2022/03/04 06:05:30;;;;;;;32.55;16.30;;;-0.40;99.90;;;;;;2083550;68;20172;-72
2022/03/04 06:08:12;;;;;;;33.10;15.52;;;-0.50;99.90;;;;;;2076018;68;20277;-73
2022/03/04 06:10:54;;;;;;;27.08;15.70;;;-0.50;99.90;;;;;;2076610;68;20891;-72
2022/03/04 06:13:36;;;;;;;34.17;17.02;;;-0.40;99.90;;;;;;2076262;68;20283;-72
2022/03/04 06:16:20;;;;;;;35.05;15.95;;;-0.10;99.90;;;;;;2089493;68;20239;-73
2022/03/04 06:19:02;;;;;;;24.80;14.45;;;-0.40;99.90;;;;;;2082740;68;20589;-73
2022/03/04 06:21:44;;;;;;;27.40;15.55;;;-0.40;99.90;;;;;;2076623;68;20627;-73
2022/03/04 06:24:31;;;;;;;26.43;15.60;;;-0.30;99.90;;;;;;2087618;68;20873;-73
2022/03/04 06:27:13;;;;;;;30.35;15.32;;;-0.50;99.90;;;;;;2077284;68;20602;-73
2022/03/04 06:29:56;;;;;;;34.25;17.60;;;-0.50;99.90;;;;;;2069595;69;20429;-72
2022/03/04 06:32:38;;;;;;;28.50;15.32;;;-0.40;99.90;;;;;;2077081;68;20252;-72
2022/03/04 06:35:22;;;;;;;29.40;16.10;;;-0.40;99.90;;;;;;2068589;69;20834;-72
2022/03/04 06:38:05;;;;;;;27.50;14.57;;;-0.30;99.90;;;;;;2081118;68;20310;-74
2022/03/04 06:40:49;;;;;;;30.30;16.08;;;-0.30;99.90;;;;;;2090542;68;20179;-74
2022/03/04 06:43:34;;;;;;;29.48;15.60;;;-0.30;99.90;;;;;;2090873;68;20352;-71
2022/03/04 06:46:16;;;;;;;29.05;15.52;;;-0.30;99.90;;;;;;2088824;68;20599;-74
2022/03/04 06:49:02;;;;;;;31.85;15.88;;;-0.20;99.90;;;;;;2092085;67;20801;-72
2022/03/04 06:51:44;;;;;;;26.77;15.57;;;-0.20;99.90;;;;;;2102045;67;20463;-73
2022/03/04 06:54:26;;;;;;;33.45;17.05;;;-0.10;99.90;;;;;;2103003;67;20203;-72
2022/03/04 06:57:11;;;;;;;26.25;15.27;;;-0.10;99.90;;;;;;2095110;68;20198;-73
2022/03/04 06:59:53;;;;;;;29.55;16.27;;;0.00;99.90;;;;;;2095310;68;20320;-72
2022/03/04 07:02:37;;;;;;;26.60;14.90;;;0.00;99.90;;;;;;2091156;68;20665;-72
2022/03/04 07:05:22;;;;;;;29.55;15.73;;;0.10;99.90;;;;;;2099994;68;20375;-72
2022/03/04 07:08:11;;;;;;;29.88;16.60;;;0.10;99.90;;;;;;2100848;67;20347;-72
2022/03/04 07:11:13;;;;;;;25.90;14.68;;;0.10;99.90;;;;;;2106811;67;20710;-73
2022/03/04 07:13:55;;;;;;;25.08;14.88;;;-0.30;99.90;;;;;;2085730;68;20255;-73
2022/03/04 07:16:39;;;;;;;25.48;14.57;;;0.20;99.90;;;;;;2097597;67;20329;-71
2022/03/04 07:19:24;;;;;;;;;;;0.30;99.90;;;;;;2093429;68;20317;-71
2022/03/04 07:22:09;;;;;;;21.92;12.82;;;0.10;99.90;;;;;;2075893;68;20057;-71
2022/03/04 07:24:52;;;;;;;26.33;14.82;;;0.20;99.90;;;;;;2075081;68;20243;-73
2022/03/04 07:27:37;;;;;;;24.15;14.48;;;0.20;99.90;;;;;;2078114;68;20409;-73
2022/03/04 07:30:20;;;;;;;25.27;14.70;;;0.30;99.90;;;;;;2095244;68;20175;-71
2022/03/04 07:33:02;;;;;;;27.35;15.00;;;0.30;99.90;;;;;;2083488;68;20432;-72
2022/03/04 07:35:47;;;;;;;29.77;15.23;;;0.40;99.90;;;;;;2072760;68;20696;-72
2022/03/04 07:38:30;;;;;;;29.30;14.98;;;-0.10;99.90;;;;;;2074520;68;20250;-72
2022/03/04 07:41:13;;;;;;;28.45;15.80;;;0.50;99.90;;;;;;2082388;68;20388;-74
2022/03/04 07:44:07;;;;;;;29.13;15.70;;;0.50;99.90;;;;;;2082350;68;20373;-73
2022/03/04 07:46:52;;;;;;;28.38;14.38;;;0.60;99.90;;;;;;2089981;68;20379;-72
2022/03/04 07:49:44;;;;;;;32.03;15.75;;;0.70;99.90;;;;;;2092045;68;21722;-71
2022/03/04 07:52:31;;;;;;;32.00;15.75;;;0.80;99.90;;;;;;2086929;68;20306;-73
2022/03/04 07:55:17;;;;;;;24.08;14.98;;;0.80;99.90;;;;;;2084472;68;20321;-73
2022/03/04 07:58:00;;;;;;;23.38;13.90;;;0.90;99.90;;;;;;2078886;68;20698;-74
2022/03/04 08:00:44;;;;;;;27.13;14.18;;;0.90;99.90;;;;;;2078675;68;20329;-72
2022/03/04 08:03:31;;;;;;;25.02;14.40;;;0.90;99.90;;;;;;2083896;68;20180;-74
2022/03/04 08:06:16;;;;;;;26.13;15.00;;;0.90;99.90;;;;;;2082028;68;20244;-74
2022/03/04 08:09:00;;;;;;;25.30;15.38;;;1.00;99.90;;;;;;2089493;68;20317;-74
2022/03/04 08:11:46;;;;;;;23.95;13.95;;;1.00;99.90;;;;;;2081981;68;20184;-72
2022/03/04 08:14:29;;;;;;;31.52;15.50;;;1.10;99.90;;;;;;2083172;68;20209;-75
2022/03/04 08:17:15;;;;;;;24.95;14.23;;;1.20;99.90;;;;;;2076986;68;20184;-74
2022/03/04 08:20:01;;;;;;;26.15;14.15;;;1.20;99.90;;;;;;2079087;68;20337;-73
2022/03/04 08:22:47;;;;;;;22.15;13.40;;;1.30;99.90;;;;;;2081238;68;20635;-78
2022/03/04 08:25:32;;;;;;;24.73;15.05;;;1.90;99.90;;;;;;2077566;68;20402;-75
2022/03/04 08:28:15;;;;;;;29.05;15.45;;;1.40;99.90;;;;;;2076166;68;20326;-81
2022/03/04 08:31:01;;;;;;;20.73;12.93;;;1.50;99.90;;;;;;2090303;68;20274;-80
2022/03/04 08:33:44;;;;;;;23.55;13.43;;;1.50;99.90;;;;;;2093497;68;20316;-80
2022/03/04 08:36:28;;;;;;;22.58;13.40;;;1.60;99.90;;;;;;2085728;68;20439;-79
2022/03/04 08:39:10;;;;;;;22.52;13.48;;;1.30;99.90;;;;;;2082578;68;20195;-81
2022/03/04 08:41:52;;;;;;;27.20;13.10;;;1.50;99.90;;;;;;2077947;68;20262;-80
2022/03/04 08:44:34;;;;;;;19.63;11.90;;;1.50;99.90;;;;;;2082513;68;20229;-78
2022/03/04 08:47:16;;;;;;;25.02;14.05;;;1.50;99.90;;;;;;2099515;67;20212;-81
2022/03/04 08:49:58;;;;;;;20.88;12.73;;;1.40;99.90;;;;;;2101347;68;21282;-80
2022/03/04 08:52:41;;;;;;;21.40;13.52;;;1.40;99.90;;;;;;2093040;68;20332;-71
2022/03/04 08:55:26;;;;;;;24.63;14.07;;;1.80;99.90;;;;;;2093918;68;20347;-80
2022/03/04 08:58:30;;;;;;;23.42;13.05;;;1.90;99.90;;;;;;2092199;68;20939;-78
2022/03/04 09:01:11;;;;;;;21.23;13.38;;;1.60;99.90;;;;;;2102968;67;20307;-78
2022/03/04 09:03:58;;;;;;;21.90;13.98;;;2.00;99.90;;;;;;2097813;68;20367;-80
2022/03/04 09:06:47;;;;;;;23.63;13.43;;;2.20;99.90;;;;;;2092864;68;20365;-78
2022/03/04 09:09:28;;;;;;;;;;;2.30;99.90;;;;;;2097052;68;20228;-80
2022/03/04 09:12:10;;;;;;;23.75;13.88;;;2.30;99.90;;;;;;2069963;69;20100;-80
2022/03/04 09:14:53;;;;;;;24.00;13.40;;;2.30;99.90;;;;;;2060956;69;20341;-82
2022/03/04 09:17:40;;;;;;;19.40;12.82;;;2.40;99.90;;;;;;2072304;68;20493;-80
2022/03/04 09:20:21;;;;;;;18.83;12.43;;;2.50;99.90;;;;;;2067818;69;20329;-84
2022/03/04 09:23:03;;;;;;;19.95;12.60;;;2.80;99.90;;;;;;2066969;69;20476;-79
2022/03/04 09:25:45;;;;;;;24.10;13.07;;;2.40;99.90;;;;;;2080042;68;20184;-78
2022/03/04 09:28:27;;;;;;;19.10;13.05;;;2.50;99.90;;;;;;2064252;69;20206;-80
2022/03/04 09:31:09;;;;;;;20.63;13.50;;;2.50;99.90;;;;;;2071641;69;20465;-78
2022/03/04 09:33:52;;;;;;;21.05;13.07;;;2.50;99.90;;;;;;2048885;69;20301;-83
2022/03/04 09:36:48;;;;;;;;;;;2.40;99.90;;;;;;2082802;68;20254;-84
2022/03/04 09:39:33;;;;;;;21.20;12.48;;;1.80;99.90;;;;;;2097568;67;20191;-79
2022/03/04 09:42:16;;;;;;;22.45;13.07;;;2.10;99.90;;;;;;2097520;68;20399;-80
2022/03/04 09:44:59;;;;;;;20.63;12.82;;;2.00;99.90;;;;;;2100367;68;20412;-79
2022/03/04 09:47:43;;;;;;;20.38;12.32;;;1.90;99.90;;;;;;2109621;67;20218;-82
2022/03/04 09:50:28;;;;;;;22.50;13.40;;;1.90;99.90;;;;;;2102564;67;20178;-82
2022/03/04 09:53:16;;;;;;;25.50;13.85;;;1.20;99.90;;;;;;2097272;68;20272;-82
2022/03/04 09:56:00;;;;;;;22.45;13.52;;;1.80;99.90;;;;;;2109744;67;20219;-76
2022/03/04 09:58:45;;;;;;;21.85;12.65;;;2.60;99.90;;;;;;2095717;68;20244;-80
2022/03/04 10:01:34;;;;;;;23.05;12.10;;;1.80;99.90;;;;;;2099859;68;20772;-82
2022/03/04 10:04:24;;;;;;;21.70;12.77;;;1.90;99.90;;;;;;2088840;68;20395;-81
2022/03/04 10:07:14;;;;;;;22.55;13.82;;;1.90;99.90;;;;;;2105766;67;20361;-84
2022/03/04 10:10:00;;;;;;;26.77;13.85;;;2.20;99.90;;;;;;2104560;67;20702;-83
2022/03/04 10:12:57;;;;;;;20.92;12.52;;;2.00;99.90;;;;;;2123046;67;20350;-84
2022/03/04 10:15:58;;;;;;;21.60;13.60;;;2.10;99.90;;;;;;2118211;67;20195;-83
2022/03/04 10:18:40;;;;;;;21.83;13.05;;;2.20;99.90;;;;;;2117594;67;20313;-79
2022/03/04 10:21:50;;;;;;;20.40;13.18;;;3.30;99.90;;;;;;2118323;67;20216;-79
2022/03/04 10:24:39;;;;;;;21.55;13.63;;;2.40;99.90;;;;;;2109188;67;20186;-80
2022/03/04 10:27:25;;;;;;;19.75;12.55;;;2.80;99.90;;;;;;2104031;67;20282;-83
2022/03/04 10:30:12;;;;;;;19.52;12.77;;;2.60;99.90;;;;;;2114109;67;20220;-83
2022/03/04 10:33:24;;;;;;;21.38;12.23;;;2.60;99.90;;;;;;2123241;67;20218;-80
2022/03/04 10:36:12;;;;;;;18.65;11.98;;;2.70;99.90;;;;;;2111014;67;20197;-79
2022/03/04 10:39:11;;;;;;;20.27;11.40;;;2.90;99.90;;;;;;2086560;68;20183;-77
2022/03/04 10:41:53;;;;;;;18.85;11.52;;;2.80;99.90;;;;;;2087605;68;20796;-78
2022/03/04 10:44:35;;;;;;;20.60;12.02;;;3.70;99.90;;;;;;2107578;67;20350;-80
2022/03/04 10:47:18;;;;;;;17.60;11.00;;;3.50;99.90;;;;;;2117220;67;20208;-79
2022/03/04 10:50:00;;;;;;;18.88;11.73;;;3.60;99.90;;;;;;2122384;67;20172;-78
2022/03/04 10:53:07;;;;;;;18.20;12.43;;;4.70;99.90;;;;;;2116321;67;20342;-77
2022/03/04 10:56:02;;;;;;;20.10;12.43;;;4.20;99.90;;;;;;2109247;67;20393;-76
2022/03/04 10:58:43;;;;;;;19.58;11.27;;;4.50;99.90;;;;;;2110433;67;20738;-78
2022/03/04 11:01:25;;;;;;;16.67;10.40;;;4.80;99.90;;;;;;2111054;67;21005;-78
2022/03/04 11:04:09;;;;;;;17.20;11.15;;;5.10;99.90;;;;;;2096077;68;20482;-78
2022/03/04 11:06:57;;;;;;;18.73;10.88;;;5.70;99.90;;;;;;2084084;68;20766;-80
2022/03/04 11:09:39;;;;;;;17.45;11.50;;;6.40;99.90;;;;;;2090500;68;20239;-79
2022/03/04 11:12:21;;;;;;;15.65;10.98;;;6.40;99.90;;;;;;2098905;67;20352;-80
2022/03/04 11:15:05;;;;;;;14.85;10.25;;;7.00;99.90;;;;;;2105747;67;20222;-79
2022/03/04 11:17:50;;;;;;;15.00;10.48;;;7.50;99.90;;;;;;2108349;67;20229;-80
2022/03/04 11:20:34;;;;;;;14.15;11.02;;;7.90;99.90;;;;;;2107209;67;20461;-80
2022/03/04 11:23:40;;;;;;;13.05;9.70;;;8.40;99.90;;;;;;2112568;67;20243;-78
2022/03/04 11:26:25;;;;;;;14.85;10.20;;;9.10;99.90;;;;;;2111898;67;20420;-78
2022/03/04 11:29:07;;;;;;;13.95;10.48;;;9.60;99.90;;;;;;2097929;68;20237;-79
2022/03/04 11:31:52;;;;;;;13.40;10.40;;;10.10;99.90;;;;;;2103840;67;20213;-77
2022/03/04 11:34:41;;;;;;;13.23;10.23;;;10.40;99.90;;;;;;2097553;68;20265;-76
2022/03/04 11:37:23;;;;;;;11.32;9.25;;;10.70;99.90;;;;;;2098516;68;20354;-76
2022/03/04 11:43:15;;;;;;;15.70;10.75;;;11.60;99.90;;;;;;2103254;67;20190;-73
2022/03/04 11:46:03;;;;;;;10.90;8.77;;;12.00;99.90;;;;;;2098966;68;20370;-73
2022/03/04 11:48:47;;;;;;;10.98;9.27;;;12.50;99.90;;;;;;2088315;68;20321;-79
2022/03/04 11:51:29;;;;;;;10.80;9.00;;;12.80;97.20;;;;;;2095621;68;20346;-82
2022/03/04 11:54:25;;;;;;;11.00;8.98;;;13.30;93.30;;;;;;2082817;67;20207;-81
2022/03/04 11:57:18;;;;;;;12.65;8.95;;;13.80;90.20;;;;;;2111921;67;20355;-81
2022/03/04 12:00:26;;;;;;;12.40;9.15;;;14.20;82.20;;;;;;2106202;67;20373;-79
2022/03/04 12:03:15;;;;;;;11.27;9.13;;;14.40;78.70;;;;;;2092575;68;20211;-79
2022/03/04 12:06:04;;;;;;;10.70;8.95;;;14.70;74.60;;;;;;2091433;68;20478;-79
2022/03/04 12:08:46;;;;;;;14.23;10.60;;;14.90;73.30;;;;;;2092545;68;20352;-80
2022/03/04 12:11:47;;;;;;;13.13;9.63;;;15.20;71.90;;;;;;2075523;68;20743;-81
2022/03/04 12:14:30;;;;;;;12.27;9.38;;;15.60;68.20;;;;;;2067893;69;20494;-80
2022/03/04 12:17:13;;;;;;;12.60;9.55;;;15.90;65.80;;;;;;2084534;68;20247;-79
2022/03/04 12:20:00;;;;;;;13.07;10.55;;;16.20;62.70;;;;;;2094921;68;20275;-84
2022/03/04 12:22:46;;;;;;;13.43;9.85;;;16.40;61.60;;;;;;2079453;68;20218;-81
2022/03/04 12:25:52;;;;;;;12.43;9.48;;;17.60;60.10;;;;;;2078132;68;20369;-82
2022/03/04 12:28:43;;;;;;;;;;;17.20;57.90;;;;;;2072828;68;20370;-82
2022/03/04 12:31:25;;;;;;;12.60;9.93;;;17.30;60.00;;;;;;2077100;68;20711;-76
2022/03/04 12:34:21;;;;;;;11.60;10.40;;;17.60;57.80;;;;;;2079247;68;20250;-76
2022/03/04 12:37:10;;;;;;;12.43;11.13;;;18.10;55.40;;;;;;2086642;68;20304;-75
2022/03/04 12:39:55;;;;;;;15.98;10.98;;;18.50;54.10;;;;;;2080411;68;20188;-75
2022/03/04 12:42:37;;;;;;;12.07;10.65;;;19.00;53.10;;;;;;2088360;68;20854;-76
2022/03/04 12:45:20;;;;;;;12.55;11.25;;;19.30;51.50;;;;;;2093473;68;20954;-75
2022/03/04 12:48:10;;;;;;;13.30;10.52;;;19.50;50.20;;;;;;2109889;67;20295;-77
2022/03/04 12:50:55;;;;;;;12.93;11.63;;;19.80;49.90;;;;;;2090853;68;20290;-80
2022/03/04 12:53:39;;;;;;;14.07;11.60;;;19.90;48.20;;;;;;2081785;68;20210;-81
2022/03/04 12:56:23;;;;;;;16.15;10.75;;;19.70;47.60;;;;;;2078474;68;20261;-82
2022/03/04 12:59:08;;;;;;;12.98;10.30;;;19.60;47.80;;;;;;2093903;68;20320;-79
2022/03/04 13:01:53;;;;;;;11.48;10.30;;;19.50;47.60;;;;;;2089602;68;20406;-80
2022/03/04 13:04:35;;;;;;;12.48;11.18;;;19.70;48.50;;;;;;2084507;68;20406;-81
2022/03/04 13:07:21;;;;;;;11.27;10.10;;;20.20;47.30;;;;;;2086607;68;20191;-85
2022/03/04 13:10:06;;;;;;;13.05;11.15;;;20.80;46.10;;;;;;2096987;68;21120;-78
2022/03/04 13:12:57;;;;;;;12.60;10.23;;;21.10;44.80;;;;;;2091467;68;20699;-82
2022/03/04 13:15:46;;;;;;;12.07;9.95;;;21.20;45.50;;;;;;2098557;68;20227;-83
2022/03/04 13:18:29;;;;;;;13.30;10.63;;;21.20;45.00;;;;;;2101023;67;20419;-83
2022/03/04 13:21:14;;;;;;;14.27;10.10;;;21.20;44.50;;;;;;2105998;67;20534;-81
2022/03/04 13:23:56;;;;;;;12.93;10.73;;;21.40;44.20;;;;;;2117252;67;20248;-81
2022/03/04 13:27:06;;;;;;;12.32;10.35;;;21.80;44.30;;;;;;2139328;66;20293;-82
2022/03/04 13:29:58;;;;;;;11.68;10.52;;;21.90;43.60;;;;;;2132869;67;20645;-82
2022/03/04 13:32:45;;;;;;;13.85;11.63;;;21.90;43.10;;;;;;2131596;67;20391;-80
2022/03/04 13:35:29;;;;;;;11.43;10.32;;;21.90;43.10;;;;;;2124310;67;20263;-80
2022/03/04 13:38:23;;;;;;;11.50;10.30;;;22.10;42.50;;;;;;2121584;67;20256;-83
2022/03/04 13:41:20;;;;;;;11.68;10.38;;;22.30;42.80;;;;;;2126630;67;20377;-80
2022/03/04 13:44:12;;;;;;;11.48;10.27;;;22.40;42.40;;;;;;2118445;67;20310;-78
2022/03/04 13:47:10;;;;;;;11.48;10.07;;;22.30;42.50;;;;;;2110963;67;20185;-81
2022/03/04 13:50:20;;;;;;;12.32;10.70;;;22.60;42.50;;;;;;2122489;67;20336;-79
2022/03/04 13:53:05;;;;;;;15.40;11.20;;;22.60;41.90;;;;;;2137429;66;20820;-78
2022/03/04 13:55:48;;;;;;;12.52;9.73;;;22.80;41.80;;;;;;2130252;67;20269;-77
2022/03/04 13:58:43;;;;;;;;;;;;;;;;;;;;;
2022/03/04 14:01:28;;;;;;;9.75;8.35;;;23.30;40.80;;;;;;2119294;67;20990;-77
2022/03/04 14:04:11;;;;;;;10.45;9.00;;;23.20;40.00;;;;;;2116108;67;20394;-79
2022/03/04 14:06:54;;;;;;;10.98;9.85;;;22.90;40.20;;;;;;2120038;67;20187;-77
2022/03/04 14:09:45;;;;;;;10.35;9.25;;;22.80;40.20;;;;;;2129630;66;20204;-77